sensor_id;sensor_type;location;lat;lon;timestamp;pressure;altitude;pressure_sealevel;temperature;humidity
56070;BME280;41944;52.078;-0.058;2022-07-29T00:00:00;101641.38;;;16.04;65.30
56070;BME280;41944;52.078;-0.058;2022-07-29T00:02:27;101640.29;;;16.18;64.94
56070;BME280;41944;52.078;-0.058;2022-07-29T00:04:55;101639.96;;;16.10;65.25
56070;BME280;41944;52.078;-0.058;2022-07-29T00:07:22;101637.31;;;16.17;65.37
56070;BME280;41944;52.078;-0.058;2022-07-29T00:09:49;101639.33;;;16.22;65.37
56070;BME280;41944;52.078;-0.058;2022-07-29T00:12:16;101639.54;;;16.55;64.29
56070;BME280;41944;52.078;-0.058;2022-07-29T00:14:43;101637.93;;;16.41;64.69
56070;BME280;41944;52.078;-0.058;2022-07-29T00:17:10;101637.60;;;16.21;65.48
56070;BME280;41944;52.078;-0.058;2022-07-29T00:19:37;101638.76;;;16.16;65.69
56070;BME280;41944;52.078;-0.058;2022-07-29T00:22:04;101635.67;;;16.15;65.78
56070;BME280;41944;52.078;-0.058;2022-07-29T00:24:31;101632.94;;;16.39;64.98
56070;BME280;41944;52.078;-0.058;2022-07-29T00:26:57;101632.36;;;16.52;64.47
56070;BME280;41944;52.078;-0.058;2022-07-29T00:29:24;101633.42;;;16.33;64.86
56070;BME280;41944;52.078;-0.058;2022-07-29T00:31:51;101633.83;;;15.95;66.40
56070;BME280;41944;52.078;-0.058;2022-07-29T00:34:18;101631.59;;;15.94;66.50
56070;BME280;41944;52.078;-0.058;2022-07-29T00:36:45;101629.33;;;15.99;66.39
56070;BME280;41944;52.078;-0.058;2022-07-29T00:39:12;101629.65;;;15.92;66.59
56070;BME280;41944;52.078;-0.058;2022-07-29T00:41:40;101631.64;;;16.11;66.10
56070;BME280;41944;52.078;-0.058;2022-07-29T00:44:07;101625.53;;;15.80;67.28
56070;BME280;41944;52.078;-0.058;2022-07-29T00:46:34;101622.65;;;15.79;67.39
56070;BME280;41944;52.078;-0.058;2022-07-29T00:49:00;101614.72;;;15.66;67.97
56070;BME280;41944;52.078;-0.058;2022-07-29T00:51:27;101614.94;;;15.61;68.10
56070;BME280;41944;52.078;-0.058;2022-07-29T00:53:55;101613.17;;;15.72;67.67
56070;BME280;41944;52.078;-0.058;2022-07-29T00:56:23;101615.98;;;15.82;67.24
56070;BME280;41944;52.078;-0.058;2022-07-29T00:58:50;101612.52;;;15.66;67.84
56070;BME280;41944;52.078;-0.058;2022-07-29T01:01:18;101612.01;;;15.74;67.88
56070;BME280;41944;52.078;-0.058;2022-07-29T01:03:45;101610.32;;;15.83;67.64
56070;BME280;41944;52.078;-0.058;2022-07-29T01:06:12;101609.06;;;15.73;68.15
56070;BME280;41944;52.078;-0.058;2022-07-29T01:08:39;101606.05;;;15.64;68.73
56070;BME280;41944;52.078;-0.058;2022-07-29T01:11:05;101606.78;;;15.69;68.72
56070;BME280;41944;52.078;-0.058;2022-07-29T01:13:33;101603.74;;;15.64;68.96
56070;BME280;41944;52.078;-0.058;2022-07-29T01:16:06;101607.19;;;15.66;68.99
56070;BME280;41944;52.078;-0.058;2022-07-29T01:18:40;101608.93;;;15.77;68.88
56070;BME280;41944;52.078;-0.058;2022-07-29T01:21:27;101610.87;;;15.86;68.47
56070;BME280;41944;52.078;-0.058;2022-07-29T01:24:29;101609.58;;;15.77;68.96
56070;BME280;41944;52.078;-0.058;2022-07-29T01:27:06;101611.34;;;15.84;68.94
56070;BME280;41944;52.078;-0.058;2022-07-29T01:29:43;101609.37;;;15.66;69.54
56070;BME280;41944;52.078;-0.058;2022-07-29T01:32:13;101610.73;;;15.66;69.94
56070;BME280;41944;52.078;-0.058;2022-07-29T01:34:45;101613.63;;;15.72;69.93
56070;BME280;41944;52.078;-0.058;2022-07-29T01:37:19;101615.86;;;15.89;69.45
56070;BME280;41944;52.078;-0.058;2022-07-29T01:39:48;101614.80;;;15.78;69.99
56070;BME280;41944;52.078;-0.058;2022-07-29T01:42:24;101614.79;;;15.85;69.90
56070;BME280;41944;52.078;-0.058;2022-07-29T01:44:57;101612.72;;;15.95;69.76
56070;BME280;41944;52.078;-0.058;2022-07-29T01:47:31;101613.64;;;16.04;69.42
56070;BME280;41944;52.078;-0.058;2022-07-29T01:50:00;101611.01;;;16.07;69.33
56070;BME280;41944;52.078;-0.058;2022-07-29T01:52:34;101609.24;;;16.02;69.50
56070;BME280;41944;52.078;-0.058;2022-07-29T01:55:09;101604.47;;;15.91;69.82
56070;BME280;41944;52.078;-0.058;2022-07-29T01:57:38;101604.29;;;15.97;69.66
56070;BME280;41944;52.078;-0.058;2022-07-29T02:00:08;101601.22;;;15.96;69.82
56070;BME280;41944;52.078;-0.058;2022-07-29T02:02:35;101601.00;;;15.92;69.92
56070;BME280;41944;52.078;-0.058;2022-07-29T02:05:06;101603.65;;;15.96;69.61
56070;BME280;41944;52.078;-0.058;2022-07-29T02:07:35;101601.95;;;16.01;69.72
56070;BME280;41944;52.078;-0.058;2022-07-29T02:10:04;101599.00;;;16.06;69.65
56070;BME280;41944;52.078;-0.058;2022-07-29T02:12:33;101598.14;;;15.95;70.18
56070;BME280;41944;52.078;-0.058;2022-07-29T02:15:04;101595.55;;;16.02;70.05
56070;BME280;41944;52.078;-0.058;2022-07-29T02:17:39;101592.40;;;15.96;70.38
56070;BME280;41944;52.078;-0.058;2022-07-29T02:20:09;101592.76;;;16.05;70.12
56070;BME280;41944;52.078;-0.058;2022-07-29T02:22:38;101591.23;;;15.98;70.35
56070;BME280;41944;52.078;-0.058;2022-07-29T02:25:08;101591.88;;;15.97;70.65
56070;BME280;41944;52.078;-0.058;2022-07-29T02:27:35;101590.40;;;15.94;70.69
56070;BME280;41944;52.078;-0.058;2022-07-29T02:30:07;101592.44;;;15.92;70.79
56070;BME280;41944;52.078;-0.058;2022-07-29T02:32:35;101596.92;;;16.07;70.24
56070;BME280;41944;52.078;-0.058;2022-07-29T02:35:05;101593.94;;;15.99;70.43
56070;BME280;41944;52.078;-0.058;2022-07-29T02:37:34;101594.51;;;15.95;70.57
56070;BME280;41944;52.078;-0.058;2022-07-29T02:40:03;101597.87;;;15.96;70.44
56070;BME280;41944;52.078;-0.058;2022-07-29T02:42:31;101601.24;;;15.90;70.81
56070;BME280;41944;52.078;-0.058;2022-07-29T02:44:58;101600.40;;;15.92;70.74
56070;BME280;41944;52.078;-0.058;2022-07-29T02:47:31;101598.60;;;15.89;70.67
56070;BME280;41944;52.078;-0.058;2022-07-29T02:50:05;101600.67;;;15.90;70.78
56070;BME280;41944;52.078;-0.058;2022-07-29T02:52:39;101602.99;;;15.86;71.36
56070;BME280;41944;52.078;-0.058;2022-07-29T02:55:13;101604.88;;;15.91;71.39
56070;BME280;41944;52.078;-0.058;2022-07-29T02:57:44;101603.44;;;15.90;71.57
56070;BME280;41944;52.078;-0.058;2022-07-29T03:00:14;101602.46;;;15.86;71.75
56070;BME280;41944;52.078;-0.058;2022-07-29T03:02:44;101610.25;;;15.78;72.20
56070;BME280;41944;52.078;-0.058;2022-07-29T03:05:17;101616.12;;;15.89;71.70
56070;BME280;41944;52.078;-0.058;2022-07-29T03:07:48;101618.51;;;15.94;71.39
56070;BME280;41944;52.078;-0.058;2022-07-29T03:10:16;101615.26;;;15.75;71.95
56070;BME280;41944;52.078;-0.058;2022-07-29T03:12:44;101613.68;;;15.68;72.39
56070;BME280;41944;52.078;-0.058;2022-07-29T03:15:11;101614.94;;;15.61;72.71
56070;BME280;41944;52.078;-0.058;2022-07-29T03:17:39;101617.89;;;15.44;74.05
56070;BME280;41944;52.078;-0.058;2022-07-29T03:20:08;101620.11;;;15.43;74.27
56070;BME280;41944;52.078;-0.058;2022-07-29T03:22:39;101617.88;;;15.32;74.50
56070;BME280;41944;52.078;-0.058;2022-07-29T03:25:08;101616.74;;;15.21;74.69
56070;BME280;41944;52.078;-0.058;2022-07-29T03:27:36;101619.02;;;15.18;74.63
56070;BME280;41944;52.078;-0.058;2022-07-29T03:30:03;101619.82;;;15.21;74.30
56070;BME280;41944;52.078;-0.058;2022-07-29T03:32:30;101621.53;;;15.13;74.15
56070;BME280;41944;52.078;-0.058;2022-07-29T03:34:57;101625.42;;;15.10;74.31
56070;BME280;41944;52.078;-0.058;2022-07-29T03:37:24;101629.26;;;15.08;74.58
56070;BME280;41944;52.078;-0.058;2022-07-29T03:39:55;101631.42;;;15.08;74.63
56070;BME280;41944;52.078;-0.058;2022-07-29T03:42:25;101628.09;;;15.13;74.49
56070;BME280;41944;52.078;-0.058;2022-07-29T03:44:55;101630.49;;;15.09;74.55
56070;BME280;41944;52.078;-0.058;2022-07-29T03:47:25;101626.67;;;15.16;74.25
56070;BME280;41944;52.078;-0.058;2022-07-29T03:49:59;101625.66;;;15.29;73.96
56070;BME280;41944;52.078;-0.058;2022-07-29T03:52:27;101623.73;;;15.27;74.24
56070;BME280;41944;52.078;-0.058;2022-07-29T03:54:55;101625.20;;;15.24;74.39
56070;BME280;41944;52.078;-0.058;2022-07-29T03:57:24;101620.12;;;15.26;74.57
56070;BME280;41944;52.078;-0.058;2022-07-29T03:59:53;101614.28;;;15.27;74.79
56070;BME280;41944;52.078;-0.058;2022-07-29T04:02:21;101612.20;;;15.28;74.89
56070;BME280;41944;52.078;-0.058;2022-07-29T04:04:49;101613.65;;;15.37;74.62
56070;BME280;41944;52.078;-0.058;2022-07-29T04:07:17;101613.99;;;15.39;74.49
56070;BME280;41944;52.078;-0.058;2022-07-29T04:09:44;101613.34;;;15.35;74.74
56070;BME280;41944;52.078;-0.058;2022-07-29T04:12:11;101616.03;;;15.37;74.78
56070;BME280;41944;52.078;-0.058;2022-07-29T04:14:38;101612.26;;;15.34;74.99
56070;BME280;41944;52.078;-0.058;2022-07-29T04:17:05;101616.30;;;15.49;74.59
56070;BME280;41944;52.078;-0.058;2022-07-29T04:19:32;101621.20;;;15.48;74.53
56070;BME280;41944;52.078;-0.058;2022-07-29T04:22:00;101624.44;;;15.31;75.16
56070;BME280;41944;52.078;-0.058;2022-07-29T04:24:27;101624.39;;;15.26;75.37
56070;BME280;41944;52.078;-0.058;2022-07-29T04:26:54;101622.82;;;15.38;74.75
56070;BME280;41944;52.078;-0.058;2022-07-29T04:29:22;101623.86;;;15.54;74.05
56070;BME280;41944;52.078;-0.058;2022-07-29T04:31:49;101623.25;;;15.50;74.36
56070;BME280;41944;52.078;-0.058;2022-07-29T04:34:16;101623.09;;;15.35;74.80
56070;BME280;41944;52.078;-0.058;2022-07-29T04:36:43;101624.18;;;15.46;74.64
56070;BME280;41944;52.078;-0.058;2022-07-29T04:39:10;101625.37;;;15.41;74.64
56070;BME280;41944;52.078;-0.058;2022-07-29T04:41:37;101626.45;;;15.42;74.94
56070;BME280;41944;52.078;-0.058;2022-07-29T04:44:04;101625.31;;;15.42;75.06
56070;BME280;41944;52.078;-0.058;2022-07-29T04:46:31;101627.66;;;15.53;74.61
56070;BME280;41944;52.078;-0.058;2022-07-29T04:48:57;101631.74;;;15.30;75.90
56070;BME280;41944;52.078;-0.058;2022-07-29T04:51:24;101637.81;;;15.34;75.68
56070;BME280;41944;52.078;-0.058;2022-07-29T04:53:51;101639.06;;;15.29;76.04
56070;BME280;41944;52.078;-0.058;2022-07-29T04:56:18;101637.49;;;15.62;74.79
56070;BME280;41944;52.078;-0.058;2022-07-29T04:58:45;101632.55;;;15.86;73.74
56070;BME280;41944;52.078;-0.058;2022-07-29T05:01:12;101627.70;;;15.90;73.42
56070;BME280;41944;52.078;-0.058;2022-07-29T05:03:39;101623.32;;;16.13;72.87
56070;BME280;41944;52.078;-0.058;2022-07-29T05:06:06;101622.58;;;16.29;72.21
56070;BME280;41944;52.078;-0.058;2022-07-29T05:08:33;101624.74;;;16.35;72.01
56070;BME280;41944;52.078;-0.058;2022-07-29T05:10:59;101625.90;;;16.45;71.42
56070;BME280;41944;52.078;-0.058;2022-07-29T05:13:26;101624.70;;;16.29;71.87
56070;BME280;41944;52.078;-0.058;2022-07-29T05:15:54;101626.83;;;16.28;72.15
56070;BME280;41944;52.078;-0.058;2022-07-29T05:18:21;101629.24;;;16.24;72.23
56070;BME280;41944;52.078;-0.058;2022-07-29T05:20:49;101630.34;;;15.99;73.07
56070;BME280;41944;52.078;-0.058;2022-07-29T05:23:16;101628.78;;;16.27;72.14
56070;BME280;41944;52.078;-0.058;2022-07-29T05:25:42;101626.93;;;16.47;71.33
56070;BME280;41944;52.078;-0.058;2022-07-29T05:28:09;101627.20;;;16.53;71.02
56070;BME280;41944;52.078;-0.058;2022-07-29T05:30:36;101627.19;;;16.37;71.54
56070;BME280;41944;52.078;-0.058;2022-07-29T05:33:03;101630.54;;;16.22;72.10
56070;BME280;41944;52.078;-0.058;2022-07-29T05:35:30;101636.93;;;16.12;72.73
56070;BME280;41944;52.078;-0.058;2022-07-29T05:37:57;101643.69;;;16.12;72.53
56070;BME280;41944;52.078;-0.058;2022-07-29T05:40:24;101646.34;;;16.14;72.72
56070;BME280;41944;52.078;-0.058;2022-07-29T05:42:51;101645.96;;;16.29;71.87
56070;BME280;41944;52.078;-0.058;2022-07-29T05:45:18;101643.09;;;16.06;73.01
56070;BME280;41944;52.078;-0.058;2022-07-29T05:47:44;101645.47;;;16.13;73.00
56070;BME280;41944;52.078;-0.058;2022-07-29T05:50:11;101644.04;;;16.13;72.89
56070;BME280;41944;52.078;-0.058;2022-07-29T05:52:38;101647.27;;;16.29;72.59
56070;BME280;41944;52.078;-0.058;2022-07-29T05:55:06;101650.86;;;16.26;72.79
56070;BME280;41944;52.078;-0.058;2022-07-29T05:57:33;101648.57;;;16.18;73.12
56070;BME280;41944;52.078;-0.058;2022-07-29T06:00:00;101653.55;;;16.47;72.49
56070;BME280;41944;52.078;-0.058;2022-07-29T06:02:27;101653.52;;;16.53;72.41
56070;BME280;41944;52.078;-0.058;2022-07-29T06:04:55;101654.15;;;16.35;73.18
56070;BME280;41944;52.078;-0.058;2022-07-29T06:07:22;101652.58;;;16.55;73.03
56070;BME280;41944;52.078;-0.058;2022-07-29T06:09:50;101651.15;;;16.79;72.15
56070;BME280;41944;52.078;-0.058;2022-07-29T06:12:17;101650.58;;;16.88;71.76
56070;BME280;41944;52.078;-0.058;2022-07-29T06:14:43;101651.72;;;17.13;70.92
56070;BME280;41944;52.078;-0.058;2022-07-29T06:17:10;101644.42;;;17.33;70.08
56070;BME280;41944;52.078;-0.058;2022-07-29T06:19:38;101642.58;;;17.39;69.70
56070;BME280;41944;52.078;-0.058;2022-07-29T06:22:04;101639.93;;;17.41;70.07
56070;BME280;41944;52.078;-0.058;2022-07-29T06:24:31;101640.40;;;17.54;69.57
56070;BME280;41944;52.078;-0.058;2022-07-29T06:26:58;101636.25;;;17.88;68.47
56070;BME280;41944;52.078;-0.058;2022-07-29T06:29:25;101635.67;;;17.96;68.11
56070;BME280;41944;52.078;-0.058;2022-07-29T06:31:52;101639.59;;;18.16;67.58
56070;BME280;41944;52.078;-0.058;2022-07-29T06:34:19;101644.19;;;18.30;66.69
56070;BME280;41944;52.078;-0.058;2022-07-29T06:36:46;101643.59;;;18.56;66.01
56070;BME280;41944;52.078;-0.058;2022-07-29T06:39:13;101644.63;;;18.58;66.23
56070;BME280;41944;52.078;-0.058;2022-07-29T06:41:40;101645.69;;;18.71;65.89
56070;BME280;41944;52.078;-0.058;2022-07-29T06:44:07;101645.59;;;18.83;65.99
56070;BME280;41944;52.078;-0.058;2022-07-29T06:46:34;101646.62;;;18.99;65.39
56070;BME280;41944;52.078;-0.058;2022-07-29T06:49:00;101650.96;;;18.98;65.62
56070;BME280;41944;52.078;-0.058;2022-07-29T06:51:27;101651.96;;;19.14;65.39
56070;BME280;41944;52.078;-0.058;2022-07-29T06:53:55;101654.72;;;19.31;64.55
56070;BME280;41944;52.078;-0.058;2022-07-29T06:56:23;101660.28;;;19.33;65.34
56070;BME280;41944;52.078;-0.058;2022-07-29T06:58:50;101661.23;;;19.43;64.99
56070;BME280;41944;52.078;-0.058;2022-07-29T07:01:16;101658.93;;;19.45;64.69
56070;BME280;41944;52.078;-0.058;2022-07-29T07:03:43;101659.27;;;19.56;64.34
56070;BME280;41944;52.078;-0.058;2022-07-29T07:06:10;101655.39;;;19.55;64.74
56070;BME280;41944;52.078;-0.058;2022-07-29T07:08:38;101657.02;;;19.50;64.85
56070;BME280;41944;52.078;-0.058;2022-07-29T07:11:05;101656.39;;;19.48;64.59
56070;BME280;41944;52.078;-0.058;2022-07-29T07:13:32;101662.59;;;19.44;64.97
56070;BME280;41944;52.078;-0.058;2022-07-29T07:15:59;101664.23;;;19.28;65.36
56070;BME280;41944;52.078;-0.058;2022-07-29T07:18:25;101662.51;;;19.29;66.12
56070;BME280;41944;52.078;-0.058;2022-07-29T07:20:52;101656.90;;;19.48;65.23
56070;BME280;41944;52.078;-0.058;2022-07-29T07:23:19;101659.13;;;19.45;65.51
56070;BME280;41944;52.078;-0.058;2022-07-29T07:25:46;101657.27;;;19.61;65.28
56070;BME280;41944;52.078;-0.058;2022-07-29T07:28:13;101657.11;;;19.67;64.73
56070;BME280;41944;52.078;-0.058;2022-07-29T07:30:40;101658.25;;;19.54;64.82
56070;BME280;41944;52.078;-0.058;2022-07-29T07:33:07;101662.04;;;19.70;65.07
56070;BME280;41944;52.078;-0.058;2022-07-29T07:35:34;101668.10;;;19.72;64.78
56070;BME280;41944;52.078;-0.058;2022-07-29T07:38:02;101669.43;;;19.96;64.48
56070;BME280;41944;52.078;-0.058;2022-07-29T07:40:29;101670.72;;;20.00;64.27
56070;BME280;41944;52.078;-0.058;2022-07-29T07:42:56;101664.91;;;20.01;63.95
56070;BME280;41944;52.078;-0.058;2022-07-29T07:45:23;101659.71;;;20.00;64.27
56070;BME280;41944;52.078;-0.058;2022-07-29T07:47:50;101660.31;;;20.23;63.08
56070;BME280;41944;52.078;-0.058;2022-07-29T07:50:17;101659.73;;;20.33;63.33
56070;BME280;41944;52.078;-0.058;2022-07-29T07:52:49;101652.90;;;20.34;63.17
56070;BME280;41944;52.078;-0.058;2022-07-29T07:55:17;101655.32;;;20.61;62.24
56070;BME280;41944;52.078;-0.058;2022-07-29T07:57:44;101658.36;;;20.65;61.99
56070;BME280;41944;52.078;-0.058;2022-07-29T08:00:12;101659.66;;;20.79;61.64
56070;BME280;41944;52.078;-0.058;2022-07-29T08:02:40;101656.90;;;20.96;61.25
56070;BME280;41944;52.078;-0.058;2022-07-29T08:05:08;101656.63;;;20.90;61.30
56070;BME280;41944;52.078;-0.058;2022-07-29T08:07:35;101658.31;;;21.10;60.84
56070;BME280;41944;52.078;-0.058;2022-07-29T08:10:03;101664.98;;;21.36;59.75
56070;BME280;41944;52.078;-0.058;2022-07-29T08:12:30;101668.12;;;21.44;59.71
56070;BME280;41944;52.078;-0.058;2022-07-29T08:14:57;101661.81;;;21.60;57.45
56070;BME280;41944;52.078;-0.058;2022-07-29T08:17:24;101664.46;;;21.15;59.42
56070;BME280;41944;52.078;-0.058;2022-07-29T08:19:51;101663.70;;;21.41;57.59
56070;BME280;41944;52.078;-0.058;2022-07-29T08:22:18;101664.39;;;21.65;57.25
56070;BME280;41944;52.078;-0.058;2022-07-29T08:24:45;101661.61;;;21.54;56.87
56070;BME280;41944;52.078;-0.058;2022-07-29T08:27:12;101661.52;;;21.59;55.48
56070;BME280;41944;52.078;-0.058;2022-07-29T08:29:39;101658.98;;;21.61;56.33
56070;BME280;41944;52.078;-0.058;2022-07-29T08:32:06;101658.84;;;21.80;56.22
56070;BME280;41944;52.078;-0.058;2022-07-29T08:34:33;101656.99;;;21.98;55.60
56070;BME280;41944;52.078;-0.058;2022-07-29T08:37:00;101659.14;;;21.97;52.19
56070;BME280;41944;52.078;-0.058;2022-07-29T08:39:27;101659.03;;;22.02;53.15
56070;BME280;41944;52.078;-0.058;2022-07-29T08:41:54;101653.57;;;22.13;51.34
56070;BME280;41944;52.078;-0.058;2022-07-29T08:44:22;101657.04;;;22.16;53.61
56070;BME280;41944;52.078;-0.058;2022-07-29T08:46:50;101655.64;;;22.10;52.77
56070;BME280;41944;52.078;-0.058;2022-07-29T08:49:17;101662.52;;;22.12;51.32
56070;BME280;41944;52.078;-0.058;2022-07-29T08:51:45;101659.68;;;21.85;52.72
56070;BME280;41944;52.078;-0.058;2022-07-29T08:54:16;101657.28;;;21.53;53.26
56070;BME280;41944;52.078;-0.058;2022-07-29T08:56:44;101659.47;;;21.86;53.07
56070;BME280;41944;52.078;-0.058;2022-07-29T08:59:12;101654.47;;;22.07;51.73
56070;BME280;41944;52.078;-0.058;2022-07-29T09:01:40;101651.90;;;22.23;49.78
56070;BME280;41944;52.078;-0.058;2022-07-29T09:04:12;101652.23;;;22.43;49.44
56070;BME280;41944;52.078;-0.058;2022-07-29T09:06:44;101653.72;;;22.47;50.02
56070;BME280;41944;52.078;-0.058;2022-07-29T09:09:11;101655.41;;;22.66;50.17
56070;BME280;41944;52.078;-0.058;2022-07-29T09:11:39;101655.23;;;22.51;50.13
56070;BME280;41944;52.078;-0.058;2022-07-29T09:14:06;101658.89;;;22.66;49.90
56070;BME280;41944;52.078;-0.058;2022-07-29T09:16:52;101663.37;;;22.93;49.53
56070;BME280;41944;52.078;-0.058;2022-07-29T09:19:23;101657.13;;;23.09;47.57
56070;BME280;41944;52.078;-0.058;2022-07-29T09:21:51;101657.97;;;22.69;48.68
56070;BME280;41944;52.078;-0.058;2022-07-29T09:24:18;101660.45;;;23.07;47.76
56070;BME280;41944;52.078;-0.058;2022-07-29T09:26:45;101654.23;;;23.10;47.61
56070;BME280;41944;52.078;-0.058;2022-07-29T09:29:14;101654.39;;;23.37;47.48
56070;BME280;41944;52.078;-0.058;2022-07-29T09:31:43;101649.66;;;23.30;46.57
56070;BME280;41944;52.078;-0.058;2022-07-29T09:34:13;101646.28;;;23.58;46.85
56070;BME280;41944;52.078;-0.058;2022-07-29T09:36:42;101644.74;;;23.74;45.62
56070;BME280;41944;52.078;-0.058;2022-07-29T09:39:09;101642.34;;;23.77;45.81
56070;BME280;41944;52.078;-0.058;2022-07-29T09:41:54;101641.35;;;23.85;45.48
56070;BME280;41944;52.078;-0.058;2022-07-29T09:44:22;101639.20;;;23.71;45.30
56070;BME280;41944;52.078;-0.058;2022-07-29T09:46:55;101644.34;;;23.87;42.76
56070;BME280;41944;52.078;-0.058;2022-07-29T09:49:23;101643.89;;;23.92;43.43
56070;BME280;41944;52.078;-0.058;2022-07-29T09:52:00;101648.90;;;23.20;44.66
56070;BME280;41944;52.078;-0.058;2022-07-29T09:54:27;101645.67;;;23.45;43.99
56070;BME280;41944;52.078;-0.058;2022-07-29T09:56:55;101643.77;;;23.69;42.39
56070;BME280;41944;52.078;-0.058;2022-07-29T09:59:23;101645.11;;;23.82;42.72
56070;BME280;41944;52.078;-0.058;2022-07-29T10:01:50;101640.98;;;23.56;43.37
56070;BME280;41944;52.078;-0.058;2022-07-29T10:04:17;101639.45;;;23.76;42.71
56070;BME280;41944;52.078;-0.058;2022-07-29T10:06:58;101640.78;;;23.78;43.65
56070;BME280;41944;52.078;-0.058;2022-07-29T10:09:25;101634.73;;;23.87;43.41
56070;BME280;41944;52.078;-0.058;2022-07-29T10:12:11;101634.68;;;24.10;42.82
56070;BME280;41944;52.078;-0.058;2022-07-29T10:14:40;101625.99;;;24.04;42.19
56070;BME280;41944;52.078;-0.058;2022-07-29T10:17:09;101633.53;;;24.22;42.17
56070;BME280;41944;52.078;-0.058;2022-07-29T10:19:37;101635.91;;;24.30;41.03
56070;BME280;41944;52.078;-0.058;2022-07-29T10:22:06;101634.56;;;24.39;40.84
56070;BME280;41944;52.078;-0.058;2022-07-29T10:24:35;101637.52;;;24.59;40.57
56070;BME280;41944;52.078;-0.058;2022-07-29T10:27:06;101639.00;;;24.59;40.86
56070;BME280;41944;52.078;-0.058;2022-07-29T10:29:34;101636.90;;;24.67;41.20
56070;BME280;41944;52.078;-0.058;2022-07-29T10:32:20;101636.72;;;24.65;40.35
56070;BME280;41944;52.078;-0.058;2022-07-29T10:35:08;101633.02;;;24.47;41.91
56070;BME280;41944;52.078;-0.058;2022-07-29T10:37:58;101634.65;;;24.65;41.18
56070;BME280;41944;52.078;-0.058;2022-07-29T10:40:39;101631.27;;;24.84;40.48
56070;BME280;41944;52.078;-0.058;2022-07-29T10:43:17;101629.82;;;24.98;40.25
56070;BME280;41944;52.078;-0.058;2022-07-29T10:45:47;101636.03;;;25.00;40.25
56070;BME280;41944;52.078;-0.058;2022-07-29T10:48:15;101626.89;;;24.98;41.18
56070;BME280;41944;52.078;-0.058;2022-07-29T10:51:00;101631.00;;;24.87;40.62
56070;BME280;41944;52.078;-0.058;2022-07-29T10:53:47;101631.88;;;25.01;39.96
56070;BME280;41944;52.078;-0.058;2022-07-29T10:56:32;101633.90;;;24.92;39.43
56070;BME280;41944;52.078;-0.058;2022-07-29T10:59:32;101635.93;;;24.96;39.46
56070;BME280;41944;52.078;-0.058;2022-07-29T11:01:59;101633.65;;;24.86;39.55
56070;BME280;41944;52.078;-0.058;2022-07-29T11:04:59;101629.59;;;24.79;39.21
56070;BME280;41944;52.078;-0.058;2022-07-29T11:07:27;101625.58;;;25.05;39.08
56070;BME280;41944;52.078;-0.058;2022-07-29T11:10:26;101631.41;;;25.08;39.10
56070;BME280;41944;52.078;-0.058;2022-07-29T11:12:54;101630.07;;;25.13;39.26
56070;BME280;41944;52.078;-0.058;2022-07-29T11:15:22;101629.35;;;25.19;38.48
56070;BME280;41944;52.078;-0.058;2022-07-29T11:18:06;101632.74;;;25.39;38.34
56070;BME280;41944;52.078;-0.058;2022-07-29T11:20:36;101631.07;;;25.45;38.75
56070;BME280;41944;52.078;-0.058;2022-07-29T11:23:23;101627.69;;;25.48;37.80
56070;BME280;41944;52.078;-0.058;2022-07-29T11:26:27;101621.42;;;25.51;37.80
56070;BME280;41944;52.078;-0.058;2022-07-29T11:29:00;101619.06;;;25.61;37.86
56070;BME280;41944;52.078;-0.058;2022-07-29T11:31:36;101630.03;;;25.67;38.28
56070;BME280;41944;52.078;-0.058;2022-07-29T11:34:22;101629.58;;;25.80;37.62
56070;BME280;41944;52.078;-0.058;2022-07-29T11:37:23;101628.42;;;25.67;37.73
56070;BME280;41944;52.078;-0.058;2022-07-29T11:40:23;101623.06;;;25.67;38.00
56070;BME280;41944;52.078;-0.058;2022-07-29T11:42:50;101625.95;;;25.88;37.58
56070;BME280;41944;52.078;-0.058;2022-07-29T11:45:23;101617.17;;;25.74;37.99
56070;BME280;41944;52.078;-0.058;2022-07-29T11:47:53;101608.79;;;25.73;38.22
56070;BME280;41944;52.078;-0.058;2022-07-29T11:50:31;101605.17;;;25.83;37.67
56070;BME280;41944;52.078;-0.058;2022-07-29T11:52:59;101615.75;;;25.75;38.30
56070;BME280;41944;52.078;-0.058;2022-07-29T11:55:27;101617.68;;;25.84;38.09
56070;BME280;41944;52.078;-0.058;2022-07-29T11:57:55;101618.30;;;25.77;38.03
56070;BME280;41944;52.078;-0.058;2022-07-29T12:00:26;101615.16;;;26.01;38.20
56070;BME280;41944;52.078;-0.058;2022-07-29T12:02:54;101608.44;;;26.14;36.92
56070;BME280;41944;52.078;-0.058;2022-07-29T12:05:31;101609.32;;;26.28;37.14
56070;BME280;41944;52.078;-0.058;2022-07-29T12:08:05;101610.05;;;26.43;37.43
56070;BME280;41944;52.078;-0.058;2022-07-29T12:10:33;101610.56;;;26.45;37.03
56070;BME280;41944;52.078;-0.058;2022-07-29T12:13:00;101611.60;;;26.47;37.15
56070;BME280;41944;52.078;-0.058;2022-07-29T12:15:27;101610.78;;;26.59;37.11
56070;BME280;41944;52.078;-0.058;2022-07-29T12:17:54;101614.55;;;26.37;37.02
56070;BME280;41944;52.078;-0.058;2022-07-29T12:20:28;101602.90;;;26.32;37.42
56070;BME280;41944;52.078;-0.058;2022-07-29T12:22:56;101603.39;;;26.12;37.83
56070;BME280;41944;52.078;-0.058;2022-07-29T12:25:24;101600.31;;;26.28;37.38
56070;BME280;41944;52.078;-0.058;2022-07-29T12:28:00;101592.62;;;26.47;36.97
56070;BME280;41944;52.078;-0.058;2022-07-29T12:30:39;101592.86;;;26.59;36.63
56070;BME280;41944;52.078;-0.058;2022-07-29T12:33:14;101595.29;;;26.58;36.85
56070;BME280;41944;52.078;-0.058;2022-07-29T12:35:44;101589.85;;;26.61;36.50
56070;BME280;41944;52.078;-0.058;2022-07-29T12:38:12;101592.56;;;26.75;36.69
56070;BME280;41944;52.078;-0.058;2022-07-29T12:40:40;101589.83;;;26.87;36.28
56070;BME280;41944;52.078;-0.058;2022-07-29T12:43:10;101591.55;;;26.79;36.45
56070;BME280;41944;52.078;-0.058;2022-07-29T12:45:39;101594.15;;;26.72;36.21
56070;BME280;41944;52.078;-0.058;2022-07-29T12:48:07;101599.31;;;26.66;36.19
56070;BME280;41944;52.078;-0.058;2022-07-29T12:50:35;101591.85;;;26.53;36.47
56070;BME280;41944;52.078;-0.058;2022-07-29T12:53:12;101590.33;;;26.62;36.64